sensor_id;sensor_type;location;lat;lon;timestamp;pressure;altitude;pressure_sealevel;temperature;humidity
22104;BME280;11218;48.886;9.426;2023-07-20T00:01:50;97794.41;;;20.96;49.33
22104;BME280;11218;48.886;9.426;2023-07-20T00:04:32;97792.81;;;20.95;49.28
22104;BME280;11218;48.886;9.426;2023-07-20T00:07:33;97792.31;;;20.93;49.16
22104;BME280;11218;48.886;9.426;2023-07-20T00:10:08;97800.03;;;20.91;49.88
22104;BME280;11218;48.886;9.426;2023-07-20T00:16:21;97806.31;;;20.92;50.11
22104;BME280;11218;48.886;9.426;2023-07-20T00:18:52;97806.47;;;20.95;50.37
22104;BME280;11218;48.886;9.426;2023-07-20T00:21:20;97803.59;;;20.92;50.06
22104;BME280;11218;48.886;9.426;2023-07-20T00:23:48;97813.88;;;20.86;50.77
22104;BME280;11218;48.886;9.426;2023-07-20T00:26:17;97812.59;;;20.84;50.83
22104;BME280;11218;48.886;9.426;2023-07-20T00:28:49;97811.00;;;20.91;50.11
22104;BME280;11218;48.886;9.426;2023-07-20T00:31:21;97813.91;;;20.78;50.71
22104;BME280;11218;48.886;9.426;2023-07-20T00:33:49;97812.63;;;20.75;50.77
22104;BME280;11218;48.886;9.426;2023-07-20T00:37:10;97802.97;;;20.60;51.45
22104;BME280;11218;48.886;9.426;2023-07-20T00:39:39;97799.44;;;20.60;51.08
22104;BME280;11218;48.886;9.426;2023-07-20T00:42:16;97805.22;;;20.58;51.06
22104;BME280;11218;48.886;9.426;2023-07-20T00:44:45;97805.53;;;20.57;50.88
22104;BME280;11218;48.886;9.426;2023-07-20T00:47:17;97810.19;;;20.48;50.98
22104;BME280;11218;48.886;9.426;2023-07-20T00:49:46;97807.28;;;20.44;51.42
22104;BME280;11218;48.886;9.426;2023-07-20T00:52:18;97814.19;;;20.42;51.63
22104;BME280;11218;48.886;9.426;2023-07-20T00:54:47;97812.28;;;20.42;51.59
22104;BME280;11218;48.886;9.426;2023-07-20T00:57:46;97812.28;;;20.51;51.33
22104;BME280;11218;48.886;9.426;2023-07-20T01:00:15;97816.78;;;20.47;51.47
22104;BME280;11218;48.886;9.426;2023-07-20T01:02:52;97803.91;;;20.39;51.73
22104;BME280;11218;48.886;9.426;2023-07-20T01:05:24;97823.31;;;20.37;51.63
22104;BME280;11218;48.886;9.426;2023-07-20T01:08:00;97816.25;;;20.36;51.33
22104;BME280;11218;48.886;9.426;2023-07-20T01:10:37;97811.59;;;20.37;51.43
22104;BME280;11218;48.886;9.426;2023-07-20T01:13:09;97820.56;;;20.28;52.21
22104;BME280;11218;48.886;9.426;2023-07-20T01:15:38;97822.50;;;20.28;51.92
22104;BME280;11218;48.886;9.426;2023-07-20T01:18:06;97815.44;;;20.27;51.88
22104;BME280;11218;48.886;9.426;2023-07-20T01:20:34;97812.38;;;20.28;51.73
22104;BME280;11218;48.886;9.426;2023-07-20T01:23:32;97814.44;;;20.23;52.00
22104;BME280;11218;48.886;9.426;2023-07-20T01:26:25;97818.00;;;20.23;52.20
22104;BME280;11218;48.886;9.426;2023-07-20T01:29:12;97817.81;;;20.20;52.33
22104;BME280;11218;48.886;9.426;2023-07-20T01:31:44;97821.03;;;20.22;52.37
22104;BME280;11218;48.886;9.426;2023-07-20T01:34:15;97820.41;;;20.25;52.45
22104;BME280;11218;48.886;9.426;2023-07-20T01:36:46;97816.22;;;20.27;52.13
22104;BME280;11218;48.886;9.426;2023-07-20T01:39:16;97813.66;;;20.22;52.13
22104;BME280;11218;48.886;9.426;2023-07-20T01:41:44;97801.72;;;20.10;52.33
22104;BME280;11218;48.886;9.426;2023-07-20T01:44:13;97813.28;;;20.07;52.81
22104;BME280;11218;48.886;9.426;2023-07-20T01:46:41;97817.00;;;20.11;52.61
22104;BME280;11218;48.886;9.426;2023-07-20T01:49:11;97819.72;;;20.11;52.63
22104;BME280;11218;48.886;9.426;2023-07-20T01:51:39;97805.88;;;20.07;52.61
22104;BME280;11218;48.886;9.426;2023-07-20T01:54:07;97817.63;;;20.08;52.48
22104;BME280;11218;48.886;9.426;2023-07-20T01:56:35;97808.47;;;20.04;52.50
22104;BME280;11218;48.886;9.426;2023-07-20T01:59:03;97825.19;;;20.02;52.30
22104;BME280;11218;48.886;9.426;2023-07-20T02:01:31;97815.31;;;19.84;52.85
22104;BME280;11218;48.886;9.426;2023-07-20T02:03:59;97820.91;;;19.79;53.27
22104;BME280;11218;48.886;9.426;2023-07-20T02:06:29;97815.13;;;19.80;53.33
22104;BME280;11218;48.886;9.426;2023-07-20T02:08:56;97821.09;;;19.82;53.11
22104;BME280;11218;48.886;9.426;2023-07-20T02:11:25;97818.84;;;19.84;53.16
22104;BME280;11218;48.886;9.426;2023-07-20T02:13:53;97817.91;;;19.89;53.26
22104;BME280;11218;48.886;9.426;2023-07-20T02:16:21;97820.16;;;19.87;53.19
22104;BME280;11218;48.886;9.426;2023-07-20T02:18:50;97818.84;;;19.84;53.00
22104;BME280;11218;48.886;9.426;2023-07-20T02:21:18;97821.75;;;19.88;52.88
22104;BME280;11218;48.886;9.426;2023-07-20T02:23:48;97816.91;;;19.85;52.96
22104;BME280;11218;48.886;9.426;2023-07-20T02:26:16;97817.72;;;19.85;52.71
22104;BME280;11218;48.886;9.426;2023-07-20T02:28:45;97821.75;;;19.88;52.77
22104;BME280;11218;48.886;9.426;2023-07-20T02:31:13;97824.00;;;19.86;52.83
22104;BME280;11218;48.886;9.426;2023-07-20T02:33:41;97824.13;;;19.81;53.05
22104;BME280;11218;48.886;9.426;2023-07-20T02:36:09;97821.72;;;19.79;53.05
22104;BME280;11218;48.886;9.426;2023-07-20T02:38:37;97820.75;;;19.75;52.84
22104;BME280;11218;48.886;9.426;2023-07-20T02:41:07;97818.94;;;19.71;52.76
22104;BME280;11218;48.886;9.426;2023-07-20T02:43:35;97827.59;;;19.64;52.95
22104;BME280;11218;48.886;9.426;2023-07-20T02:46:03;97836.72;;;19.59;53.33
22104;BME280;11218;48.886;9.426;2023-07-20T02:48:31;97839.47;;;19.59;53.69
22104;BME280;11218;48.886;9.426;2023-07-20T02:50:59;97838.16;;;19.57;53.30
22104;BME280;11218;48.886;9.426;2023-07-20T02:53:27;97838.28;;;19.52;53.80
22104;BME280;11218;48.886;9.426;2023-07-20T02:55:55;97832.50;;;19.53;53.40
22104;BME280;11218;48.886;9.426;2023-07-20T02:58:25;97835.66;;;19.47;53.66
22104;BME280;11218;48.886;9.426;2023-07-20T03:00:53;97832.25;;;19.41;53.80
22104;BME280;11218;48.886;9.426;2023-07-20T03:03:21;97840.06;;;19.34;53.81
22104;BME280;11218;48.886;9.426;2023-07-20T03:05:49;97841.19;;;19.33;53.83
22104;BME280;11218;48.886;9.426;2023-07-20T03:08:21;97839.59;;;19.32;53.49
22104;BME280;11218;48.886;9.426;2023-07-20T03:10:49;97834.94;;;19.32;53.81
22104;BME280;11218;48.886;9.426;2023-07-20T03:13:17;97842.31;;;19.32;53.97
22104;BME280;11218;48.886;9.426;2023-07-20T03:15:47;97834.94;;;19.32;54.18
22104;BME280;11218;48.886;9.426;2023-07-20T03:18:15;97842.81;;;19.34;54.08
22104;BME280;11218;48.886;9.426;2023-07-20T03:20:43;97839.25;;;19.33;53.97
22104;BME280;11218;48.886;9.426;2023-07-20T03:23:11;97849.69;;;19.31;54.09
22104;BME280;11218;48.886;9.426;2023-07-20T03:25:39;97843.78;;;19.29;53.99
22104;BME280;11218;48.886;9.426;2023-07-20T03:28:08;97843.91;;;19.24;54.36
22104;BME280;11218;48.886;9.426;2023-07-20T03:30:36;97851.16;;;19.29;54.39
22104;BME280;11218;48.886;9.426;2023-07-20T03:33:05;97850.34;;;19.28;54.60
22104;BME280;11218;48.886;9.426;2023-07-20T03:35:33;97850.16;;;19.25;54.53
22104;BME280;11218;48.886;9.426;2023-07-20T03:38:01;97855.94;;;19.23;54.67
22104;BME280;11218;48.886;9.426;2023-07-20T03:40:29;97856.25;;;19.22;55.00
22104;BME280;11218;48.886;9.426;2023-07-20T03:42:57;97859.28;;;19.20;54.69
22104;BME280;11218;48.886;9.426;2023-07-20T03:45:26;97852.03;;;19.16;54.81
22104;BME280;11218;48.886;9.426;2023-07-20T03:47:54;97863.44;;;19.18;54.65
22104;BME280;11218;48.886;9.426;2023-07-20T03:50:24;97867.09;;;19.13;55.22
22104;BME280;11218;48.886;9.426;2023-07-20T03:52:52;97863.88;;;19.11;54.82
22104;BME280;11218;48.886;9.426;2023-07-20T03:55:20;97864.78;;;19.07;55.16
22104;BME280;11218;48.886;9.426;2023-07-20T03:57:48;97861.56;;;19.04;55.52
22104;BME280;11218;48.886;9.426;2023-07-20T04:00:18;97858.03;;;19.04;55.27
22104;BME280;11218;48.886;9.426;2023-07-20T04:02:46;97855.41;;;18.99;55.62
22104;BME280;11218;48.886;9.426;2023-07-20T04:05:14;97857.75;;;18.92;55.37
22104;BME280;11218;48.886;9.426;2023-07-20T04:07:44;97867.50;;;18.84;55.99
22104;BME280;11218;48.886;9.426;2023-07-20T04:10:12;97867.59;;;18.79;55.89
22104;BME280;11218;48.886;9.426;2023-07-20T04:12:41;97871.25;;;18.75;56.36
22104;BME280;11218;48.886;9.426;2023-07-20T04:15:10;97867.28;;;18.81;55.99
22104;BME280;11218;48.886;9.426;2023-07-20T04:17:38;97867.28;;;18.81;56.10
22104;BME280;11218;48.886;9.426;2023-07-20T04:20:08;97873.88;;;18.80;56.19
22104;BME280;11218;48.886;9.426;2023-07-20T04:22:36;97874.38;;;18.82;56.20
22104;BME280;11218;48.886;9.426;2023-07-20T04:25:06;97871.75;;;18.77;56.65
22104;BME280;11218;48.886;9.426;2023-07-20T04:27:34;97873.28;;;18.69;56.38
22104;BME280;11218;48.886;9.426;2023-07-20T04:30:03;97886.91;;;18.69;56.88
22104;BME280;11218;48.886;9.426;2023-07-20T04:32:31;97873.47;;;18.73;56.66
22104;BME280;11218;48.886;9.426;2023-07-20T04:35:05;97876.59;;;18.80;56.35
22104;BME280;11218;48.886;9.426;2023-07-20T04:37:34;97873.16;;;18.74;56.89
22104;BME280;11218;48.886;9.426;2023-07-20T04:40:02;97884.06;;;18.74;56.67
22104;BME280;11218;48.886;9.426;2023-07-20T04:42:32;97882.66;;;18.77;56.43
22104;BME280;11218;48.886;9.426;2023-07-20T04:45:00;97874.97;;;18.79;56.82
22104;BME280;11218;48.886;9.426;2023-07-20T04:47:28;97877.91;;;18.82;56.35
22104;BME280;11218;48.886;9.426;2023-07-20T04:49:56;97875.97;;;18.83;56.81
22104;BME280;11218;48.886;9.426;2023-07-20T04:52:24;97874.06;;;18.83;56.56
22104;BME280;11218;48.886;9.426;2023-07-20T04:55:08;97872.63;;;18.86;56.72
22104;BME280;11218;48.886;9.426;2023-07-20T04:57:37;97873.13;;;18.88;56.80
22104;BME280;11218;48.886;9.426;2023-07-20T05:00:06;97880.69;;;18.91;56.80
22104;BME280;11218;48.886;9.426;2023-07-20T05:02:36;97878.97;;;18.95;56.17
22104;BME280;11218;48.886;9.426;2023-07-20T05:05:05;97880.59;;;18.96;56.42
22104;BME280;11218;48.886;9.426;2023-07-20T05:07:34;97880.78;;;18.99;56.45
22104;BME280;11218;48.886;9.426;2023-07-20T05:10:01;97883.63;;;18.94;56.53
22104;BME280;11218;48.886;9.426;2023-07-20T05:12:30;97884.25;;;18.91;56.76
22104;BME280;11218;48.886;9.426;2023-07-20T05:14:59;97878.47;;;18.93;56.97
22104;BME280;11218;48.886;9.426;2023-07-20T05:17:27;97884.84;;;18.88;57.12
22104;BME280;11218;48.886;9.426;2023-07-20T05:19:55;97876.97;;;18.87;57.79
22104;BME280;11218;48.886;9.426;2023-07-20T05:22:23;97889.00;;;18.86;58.44
22104;BME280;11218;48.886;9.426;2023-07-20T05:24:52;97880.81;;;18.86;57.93
22104;BME280;11218;48.886;9.426;2023-07-20T05:27:20;97884.66;;;18.85;58.20
22104;BME280;11218;48.886;9.426;2023-07-20T05:29:48;97872.94;;;18.84;58.27
22104;BME280;11218;48.886;9.426;2023-07-20T05:32:17;97875.16;;;18.82;58.17
22104;BME280;11218;48.886;9.426;2023-07-20T05:34:45;97878.91;;;18.86;58.42
22104;BME280;11218;48.886;9.426;2023-07-20T05:37:14;97883.63;;;18.94;57.86
22104;BME280;11218;48.886;9.426;2023-07-20T05:39:42;97880.47;;;19.01;57.82
22104;BME280;11218;48.886;9.426;2023-07-20T05:42:10;97874.28;;;19.09;57.13
22104;BME280;11218;48.886;9.426;2023-07-20T05:44:38;97886.81;;;19.10;57.19
22104;BME280;11218;48.886;9.426;2023-07-20T05:47:07;97888.91;;;19.13;57.28
22104;BME280;11218;48.886;9.426;2023-07-20T05:49:38;97885.56;;;19.16;57.19
22104;BME280;11218;48.886;9.426;2023-07-20T05:52:06;97882.53;;;19.18;56.96
22104;BME280;11218;48.886;9.426;2023-07-20T05:54:35;97890.72;;;19.18;56.77
22104;BME280;11218;48.886;9.426;2023-07-20T05:57:07;97889.78;;;19.22;56.81
22104;BME280;11218;48.886;9.426;2023-07-20T06:00:02;97886.44;;;19.25;57.12
22104;BME280;11218;48.886;9.426;2023-07-20T06:02:31;97878.25;;;19.25;57.43
22104;BME280;11218;48.886;9.426;2023-07-20T06:05:01;97882.78;;;19.30;56.67
22104;BME280;11218;48.886;9.426;2023-07-20T06:07:30;97884.25;;;19.36;57.21
22104;BME280;11218;48.886;9.426;2023-07-20T06:09:58;97889.28;;;19.43;56.82
22104;BME280;11218;48.886;9.426;2023-07-20T06:12:26;97887.97;;;19.40;56.88
22104;BME280;11218;48.886;9.426;2023-07-20T06:14:55;97897.28;;;19.39;56.76
22104;BME280;11218;48.886;9.426;2023-07-20T06:17:23;97884.63;;;19.43;56.97
22104;BME280;11218;48.886;9.426;2023-07-20T06:19:51;97894.13;;;19.46;56.71
22104;BME280;11218;48.886;9.426;2023-07-20T06:22:21;97884.00;;;19.46;56.46
22104;BME280;11218;48.886;9.426;2023-07-20T06:24:50;97894.81;;;19.51;56.48
22104;BME280;11218;48.886;9.426;2023-07-20T06:27:19;97882.03;;;19.60;56.88
22104;BME280;11218;48.886;9.426;2023-07-20T06:29:47;97878.84;;;19.67;56.56
22104;BME280;11218;48.886;9.426;2023-07-20T06:32:17;97888.53;;;19.73;56.03
22104;BME280;11218;48.886;9.426;2023-07-20T06:35:23;97886.66;;;19.82;55.81
22104;BME280;11218;48.886;9.426;2023-07-20T06:37:53;97887.97;;;19.85;55.42
22104;BME280;11218;48.886;9.426;2023-07-20T06:40:22;97893.59;;;19.88;55.19
22104;BME280;11218;48.886;9.426;2023-07-20T06:43:03;97884.97;;;19.95;55.31
22104;BME280;11218;48.886;9.426;2023-07-20T06:45:41;97886.94;;;20.12;54.64
22104;BME280;11218;48.886;9.426;2023-07-20T06:51:05;97889.22;;;20.18;54.41
22104;BME280;11218;48.886;9.426;2023-07-20T06:53:34;97889.38;;;20.22;53.63
22104;BME280;11218;48.886;9.426;2023-07-20T06:56:03;97879.09;;;20.19;54.32
22104;BME280;11218;48.886;9.426;2023-07-20T06:58:31;97891.00;;;20.23;54.08
22104;BME280;11218;48.886;9.426;2023-07-20T07:00:59;97880.38;;;20.21;54.37
22104;BME280;11218;48.886;9.426;2023-07-20T07:03:27;97877.81;;;20.25;54.53
22104;BME280;11218;48.886;9.426;2023-07-20T07:05:55;97882.00;;;20.31;54.25
22104;BME280;11218;48.886;9.426;2023-07-20T07:08:24;97887.72;;;20.43;54.11
22104;BME280;11218;48.886;9.426;2023-07-20T07:10:54;97879.06;;;20.50;54.04
22104;BME280;11218;48.886;9.426;2023-07-20T07:13:22;97877.97;;;20.68;53.77
22104;BME280;11218;48.886;9.426;2023-07-20T07:15:51;97874.28;;;20.73;53.31
22104;BME280;11218;48.886;9.426;2023-07-20T07:18:19;97883.25;;;20.82;53.19
22104;BME280;11218;48.886;9.426;2023-07-20T07:20:51;97873.94;;;21.00;52.89
22104;BME280;11218;48.886;9.426;2023-07-20T07:23:20;97873.63;;;21.19;52.18
22104;BME280;11218;48.886;9.426;2023-07-20T07:25:48;97871.53;;;21.16;52.02
22104;BME280;11218;48.886;9.426;2023-07-20T07:28:18;97864.59;;;21.18;52.06
22104;BME280;11218;48.886;9.426;2023-07-20T07:30:47;97858.66;;;21.08;52.47
22104;BME280;11218;48.886;9.426;2023-07-20T07:33:15;97870.72;;;21.07;53.12
22104;BME280;11218;48.886;9.426;2023-07-20T07:35:44;97867.19;;;21.06;52.92
22104;BME280;11218;48.886;9.426;2023-07-20T07:38:12;97870.09;;;21.10;53.05
22104;BME280;11218;48.886;9.426;2023-07-20T07:40:44;97866.72;;;21.21;52.92
22104;BME280;11218;48.886;9.426;2023-07-20T07:43:13;97851.41;;;21.38;52.09
22104;BME280;11218;48.886;9.426;2023-07-20T07:45:43;97857.69;;;21.38;52.36
22104;BME280;11218;48.886;9.426;2023-07-20T07:48:11;97866.38;;;21.40;52.22
22104;BME280;11218;48.886;9.426;2023-07-20T07:50:40;97869.06;;;21.57;52.03
22104;BME280;11218;48.886;9.426;2023-07-20T07:53:09;97859.47;;;21.89;50.92
22104;BME280;11218;48.886;9.426;2023-07-20T07:55:37;97862.47;;;22.14;50.39
22104;BME280;11218;48.886;9.426;2023-07-20T07:58:06;97864.56;;;22.17;49.55
22104;BME280;11218;48.886;9.426;2023-07-20T08:00:34;97868.63;;;22.11;49.81
22104;BME280;11218;48.886;9.426;2023-07-20T08:03:06;97875.91;;;21.98;50.39
22104;BME280;11218;48.886;9.426;2023-07-20T08:05:36;97867.19;;;22.05;50.52
22104;BME280;11218;48.886;9.426;2023-07-20T08:08:04;97863.97;;;22.03;50.48
22104;BME280;11218;48.886;9.426;2023-07-20T08:10:32;97864.81;;;21.86;50.95
22104;BME280;11218;48.886;9.426;2023-07-20T08:13:01;97862.22;;;21.89;50.70
22104;BME280;11218;48.886;9.426;2023-07-20T08:15:30;97852.53;;;22.30;49.80
22104;BME280;11218;48.886;9.426;2023-07-20T08:17:58;97854.28;;;22.64;49.30
22104;BME280;11218;48.886;9.426;2023-07-20T08:20:28;97854.44;;;23.09;48.77
22104;BME280;11218;48.886;9.426;2023-07-20T08:22:58;97851.25;;;23.40;46.56
22104;BME280;11218;48.886;9.426;2023-07-20T08:25:27;97854.78;;;23.41;47.36
22104;BME280;11218;48.886;9.426;2023-07-20T08:27:55;97854.19;;;23.35;47.11
22104;BME280;11218;48.886;9.426;2023-07-20T08:30:24;97854.47;;;23.21;47.59
22104;BME280;11218;48.886;9.426;2023-07-20T08:32:52;97857.16;;;23.09;47.21
22104;BME280;11218;48.886;9.426;2023-07-20T08:35:20;97861.94;;;22.79;47.65
22104;BME280;11218;48.886;9.426;2023-07-20T08:37:50;97858.88;;;23.02;46.70
22104;BME280;11218;48.886;9.426;2023-07-20T08:40:19;97858.22;;;23.38;46.50
22104;BME280;11218;48.886;9.426;2023-07-20T08:42:49;97856.28;;;23.71;45.36
22104;BME280;11218;48.886;9.426;2023-07-20T08:45:18;97861.06;;;23.62;45.18
22104;BME280;11218;48.886;9.426;2023-07-20T08:47:47;97850.91;;;23.42;45.55
22104;BME280;11218;48.886;9.426;2023-07-20T08:50:17;97859.47;;;23.40;45.54
22104;BME280;11218;48.886;9.426;2023-07-20T08:52:46;97851.22;;;23.61;45.25
22104;BME280;11218;48.886;9.426;2023-07-20T08:55:16;97850.44;;;23.85;44.57
22104;BME280;11218;48.886;9.426;2023-07-20T08:57:46;97850.72;;;24.16;42.92
22104;BME280;11218;48.886;9.426;2023-07-20T09:00:15;97853.16;;;24.42;40.80
22104;BME280;11218;48.886;9.426;2023-07-20T09:02:45;97854.78;;;24.31;41.88
22104;BME280;11218;48.886;9.426;2023-07-20T09:05:14;97847.38;;;24.60;41.90
22104;BME280;11218;48.886;9.426;2023-07-20T09:07:42;97847.91;;;24.89;41.95
22104;BME280;11218;48.886;9.426;2023-07-20T09:10:11;97840.69;;;24.85;41.92
22104;BME280;11218;48.886;9.426;2023-07-20T09:12:43;97848.53;;;24.58;41.48
22104;BME280;11218;48.886;9.426;2023-07-20T09:15:11;97843.06;;;24.34;41.26
22104;BME280;11218;48.886;9.426;2023-07-20T09:17:45;97846.16;;;24.33;40.91
22104;BME280;11218;48.886;9.426;2023-07-20T09:20:16;97847.19;;;24.40;41.22
22104;BME280;11218;48.886;9.426;2023-07-20T09:22:48;97846.28;;;24.36;40.60
22104;BME280;11218;48.886;9.426;2023-07-20T09:25:18;97848.88;;;24.57;40.39
22104;BME280;11218;48.886;9.426;2023-07-20T09:27:50;97840.63;;;24.57;40.00
22104;BME280;11218;48.886;9.426;2023-07-20T09:30:18;97847.78;;;24.34;40.35
22104;BME280;11218;48.886;9.426;2023-07-20T09:32:48;97839.41;;;24.30;40.18
22104;BME280;11218;48.886;9.426;2023-07-20T09:35:22;97854.53;;;24.36;41.01
22104;BME280;11218;48.886;9.426;2023-07-20T09:37:55;97842.94;;;24.43;40.19
22104;BME280;11218;48.886;9.426;2023-07-20T09:40:28;97840.84;;;24.52;40.58
22104;BME280;11218;48.886;9.426;2023-07-20T09:43:01;97834.03;;;24.86;40.28
22104;BME280;11218;48.886;9.426;2023-07-20T09:45:35;97840.53;;;25.06;38.33
22104;BME280;11218;48.886;9.426;2023-07-20T09:48:07;97834.38;;;25.25;38.70
22104;BME280;11218;48.886;9.426;2023-07-20T09:50:42;97837.06;;;25.37;38.59
22104;BME280;11218;48.886;9.426;2023-07-20T09:53:12;97843.50;;;25.13;38.87
22104;BME280;11218;48.886;9.426;2023-07-20T09:55:43;97847.94;;;24.65;39.67
22104;BME280;11218;48.886;9.426;2023-07-20T09:58:14;97842.38;;;24.49;40.32
22104;BME280;11218;48.886;9.426;2023-07-20T10:00:44;97842.03;;;24.39;40.54
22104;BME280;11218;48.886;9.426;2023-07-20T10:03:19;97841.09;;;24.22;41.07
22104;BME280;11218;48.886;9.426;2023-07-20T10:05:52;97829.53;;;24.41;40.86
22104;BME280;11218;48.886;9.426;2023-07-20T10:08:24;97833.97;;;24.58;39.89
22104;BME280;11218;48.886;9.426;2023-07-20T10:10:57;97836.75;;;24.46;39.24
22104;BME280;11218;48.886;9.426;2023-07-20T10:13:29;97841.47;;;24.33;39.45
22104;BME280;11218;48.886;9.426;2023-07-20T10:16:01;97833.91;;;24.30;39.32
22104;BME280;11218;48.886;9.426;2023-07-20T10:18:35;97828.16;;;24.47;39.52
22104;BME280;11218;48.886;9.426;2023-07-20T10:21:07;97821.56;;;24.64;39.02
22104;BME280;11218;48.886;9.426;2023-07-20T10:23:39;97824.63;;;24.75;37.14
22104;BME280;11218;48.886;9.426;2023-07-20T10:26:07;97816.41;;;24.63;36.57
22104;BME280;11218;48.886;9.426;2023-07-20T10:28:38;97822.38;;;24.65;35.87
22104;BME280;11218;48.886;9.426;2023-07-20T10:31:07;97819.59;;;24.77;35.66
22104;BME280;11218;48.886;9.426;2023-07-20T10:33:37;97812.91;;;24.90;36.35
22104;BME280;11218;48.886;9.426;2023-07-20T10:36:06;97813.03;;;25.21;34.97
22104;BME280;11218;48.886;9.426;2023-07-20T10:38:41;97794.81;;;25.33;33.75
22104;BME280;11218;48.886;9.426;2023-07-20T10:41:17;97801.97;;;25.49;33.61
22104;BME280;11218;48.886;9.426;2023-07-20T10:43:48;97807.47;;;25.49;32.66
22104;BME280;11218;48.886;9.426;2023-07-20T10:46:41;97801.69;;;25.39;32.53
22104;BME280;11218;48.886;9.426;2023-07-20T10:49:10;97803.13;;;25.48;33.98
22104;BME280;11218;48.886;9.426;2023-07-20T10:51:40;97799.75;;;25.55;34.05
22104;BME280;11218;48.886;9.426;2023-07-20T10:54:08;97796.38;;;25.62;32.74
22104;BME280;11218;48.886;9.426;2023-07-20T10:56:37;97793.84;;;25.41;33.10
22104;BME280;11218;48.886;9.426;2023-07-20T10:59:18;97799.31;;;25.09;32.61
22104;BME280;11218;48.886;9.426;2023-07-20T11:01:47;97786.56;;;25.33;33.25
22104;BME280;11218;48.886;9.426;2023-07-20T11:04:17;97794.06;;;25.64;32.23
22104;BME280;11218;48.886;9.426;2023-07-20T11:06:46;97779.59;;;25.67;31.86
22104;BME280;11218;48.886;9.426;2023-07-20T11:09:14;97784.31;;;25.82;31.67
22104;BME280;11218;48.886;9.426;2023-07-20T11:11:44;97794.56;;;25.81;33.14
22104;BME280;11218;48.886;9.426;2023-07-20T11:14:22;97791.44;;;25.99;31.49
22104;BME280;11218;48.886;9.426;2023-07-20T11:16:52;97785.25;;;26.21;31.43
22104;BME280;11218;48.886;9.426;2023-07-20T11:19:23;97782.56;;;26.25;30.35
22104;BME280;11218;48.886;9.426;2023-07-20T11:21:55;97786.97;;;26.10;30.28
22104;BME280;11218;48.886;9.426;2023-07-20T11:24:29;97781.00;;;26.08;30.70
22104;BME280;11218;48.886;9.426;2023-07-20T11:26:57;97769.41;;;26.18;31.38
22104;BME280;11218;48.886;9.426;2023-07-20T11:29:26;97785.53;;;26.32;30.83
22104;BME280;11218;48.886;9.426;2023-07-20T11:32:00;97791.50;;;26.34;30.06
22104;BME280;11218;48.886;9.426;2023-07-20T11:34:32;97782.81;;;26.51;29.50
22104;BME280;11218;48.886;9.426;2023-07-20T11:37:02;97775.41;;;26.74;28.64
22104;BME280;11218;48.886;9.426;2023-07-20T11:39:33;97777.31;;;26.70;29.38
22104;BME280;11218;48.886;9.426;2023-07-20T11:42:02;97785.75;;;26.58;28.87
22104;BME280;11218;48.886;9.426;2023-07-20T11:44:32;97784.38;;;26.33;27.41
22104;BME280;11218;48.886;9.426;2023-07-20T11:47:01;97784.91;;;26.23;28.18
22104;BME280;11218;48.886;9.426;2023-07-20T11:49:34;97779.38;;;26.38;30.25
22104;BME280;11218;48.886;9.426;2023-07-20T11:52:04;97771.19;;;26.80;30.73
22104;BME280;11218;48.886;9.426;2023-07-20T11:54:33;97767.94;;;27.13;30.21
22104;BME280;11218;48.886;9.426;2023-07-20T11:57:02;97765.72;;;27.42;29.34
22104;BME280;11218;48.886;9.426;2023-07-20T11:59:33;97757.53;;;27.26;29.67
22104;BME280;11218;48.886;9.426;2023-07-20T12:02:02;97762.66;;;27.05;29.63
22104;BME280;11218;48.886;9.426;2023-07-20T12:04:31;97757.34;;;26.96;29.53
22104;BME280;11218;48.886;9.426;2023-07-20T12:06:59;97758.03;;;26.93;29.52
22104;BME280;11218;48.886;9.426;2023-07-20T12:09:27;97757.81;;;26.82;28.12
22104;BME280;11218;48.886;9.426;2023-07-20T12:12:15;97759.56;;;26.91;28.90
22104;BME280;11218;48.886;9.426;2023-07-20T12:14:45;97754.84;;;26.91;28.81
22104;BME280;11218;48.886;9.426;2023-07-20T12:17:13;97752.97;;;27.14;28.49
22104;BME280;11218;48.886;9.426;2023-07-20T12:19:41;97748.22;;;27.34;28.29
22104;BME280;11218;48.886;9.426;2023-07-20T12:22:09;97743.09;;;27.36;27.86
22104;BME280;11218;48.886;9.426;2023-07-20T12:24:38;97739.19;;;27.37;28.51
22104;BME280;11218;48.886;9.426;2023-07-20T12:27:06;97735.69;;;27.40;27.68
22104;BME280;11218;48.886;9.426;2023-07-20T12:29:34;97745.28;;;27.46;28.24
22104;BME280;11218;48.886;9.426;2023-07-20T12:32:05;97733.94;;;27.55;27.63
22104;BME280;11218;48.886;9.426;2023-07-20T12:34:33;97737.03;;;27.73;28.28
22104;BME280;11218;48.886;9.426;2023-07-20T12:37:03;97726.53;;;28.08;27.23
22104;BME280;11218;48.886;9.426;2023-07-20T12:39:31;97726.59;;;28.12;26.27
22104;BME280;11218;48.886;9.426;2023-07-20T12:41:59;97718.59;;;27.80;26.91
22104;BME280;11218;48.886;9.426;2023-07-20T12:44:27;97719.56;;;27.69;28.14
22104;BME280;11218;48.886;9.426;2023-07-20T12:46:55;97719.44;;;27.85;27.86
22104;BME280;11218;48.886;9.426;2023-07-20T12:49:26;97702.41;;;28.09;28.61
22104;BME280;11218;48.886;9.426;2023-07-20T12:51:54;97717.09;;;28.13;28.67
22104;BME280;11218;48.886;9.426;2023-07-20T12:54:22;97706.47;;;27.89;28.81
22104;BME280;11218;48.886;9.426;2023-07-20T12:56:50;97708.09;;;27.93;29.05
22104;BME280;11218;48.886;9.426;2023-07-20T12:59:21;97708.44;;;27.88;28.80
22104;BME280;11218;48.886;9.426;2023-07-20T13:01:49;97697.31;;;27.85;28.98
22104;BME280;11218;48.886;9.426;2023-07-20T13:04:17;97711.72;;;27.97;28.34
22104;BME280;11218;48.886;9.426;2023-07-20T13:06:47;97702.72;;;28.04;27.01
22104;BME280;11218;48.886;9.426;2023-07-20T13:09:15;97709.41;;;27.76;26.83
22104;BME280;11218;48.886;9.426;2023-07-20T13:11:43;97705.59;;;27.85;27.69
22104;BME280;11218;48.886;9.426;2023-07-20T13:14:12;97701.34;;;27.91;26.61
22104;BME280;11218;48.886;9.426;2023-07-20T13:16:40;97692.34;;;27.71;27.28
22104;BME280;11218;48.886;9.426;2023-07-20T13:19:09;97690.16;;;27.84;27.26
22104;BME280;11218;48.886;9.426;2023-07-20T13:21:37;97689.16;;;27.95;27.35
22104;BME280;11218;48.886;9.426;2023-07-20T13:24:07;97695.91;;;27.98;27.93